createdAt,value
2023-04-07T00:00:09.816Z,100919.03
2023-04-07T00:05:06.750Z,100880.34
2023-04-07T00:09:59.928Z,100934.22
2023-04-07T00:14:55.537Z,100915.97
2023-04-07T00:19:50.128Z,100942.25
2023-04-07T00:24:43.590Z,100828.19
2023-04-07T00:29:36.910Z,100938.13
2023-04-07T00:34:30.499Z,100937.34
2023-04-07T00:39:25.803Z,100937.50
2023-04-07T00:44:19.099Z,100908.34
2023-04-07T00:49:13.413Z,100938.53
2023-04-07T00:54:07.516Z,100910.84
2023-04-07T00:59:02.088Z,100863.13
2023-04-07T01:04:02.954Z,100903.03
2023-04-07T01:09:03.857Z,100931.41
2023-04-07T01:14:01.637Z,100895.13
2023-04-07T01:19:10.583Z,100917.66
2023-04-07T01:24:24.234Z,100895.63
2023-04-07T01:29:35.738Z,100938.06
2023-04-07T01:34:31.774Z,100932.34
2023-04-07T01:39:26.416Z,100900.59
2023-04-07T01:44:21.119Z,100925.13
2023-04-07T01:49:16.525Z,100895.97
2023-04-07T01:54:10.855Z,100926.44
2023-04-07T01:59:04.564Z,100848.44
2023-04-07T02:04:07.922Z,100922.19
2023-04-07T02:09:08.399Z,100923.16
2023-04-07T02:14:04.407Z,100923.03
2023-04-07T02:19:04.786Z,100864.88
2023-04-07T02:23:58.293Z,100876.69
2023-04-07T02:28:53.111Z,100922.00
2023-04-07T02:33:46.351Z,100924.41
2023-04-07T02:38:39.590Z,100930.34
2023-04-07T02:43:32.838Z,100801.13
2023-04-07T02:48:27.622Z,100806.31
2023-04-07T02:53:20.887Z,100887.88
2023-04-07T02:58:14.090Z,100883.66
2023-04-07T03:03:10.362Z,100943.53
2023-04-07T03:08:08.225Z,100908.34
2023-04-07T03:13:01.564Z,100917.84
2023-04-07T03:17:56.301Z,100959.31
2023-04-07T03:22:50.060Z,100958.53
2023-04-07T03:27:53.107Z,100931.88
2023-04-07T03:32:47.087Z,100936.41
2023-04-07T03:37:40.402Z,100954.09
2023-04-07T03:42:39.215Z,100964.50
2023-04-07T03:47:35.562Z,100977.34
2023-04-07T03:52:31.250Z,100981.56
2023-04-07T03:57:32.157Z,100868.22
2023-04-07T04:02:25.488Z,101006.44
2023-04-07T04:07:23.803Z,100956.72
2023-04-07T04:12:19.992Z,101003.00
2023-04-07T04:17:27.303Z,101010.78
2023-04-07T04:22:20.808Z,101005.69
2023-04-07T04:27:25.437Z,100994.81
2023-04-07T04:32:25.608Z,101017.44
2023-04-07T04:37:19.142Z,100896.63
2023-04-07T04:42:13.535Z,101034.34
2023-04-07T04:47:08.690Z,100999.84
2023-04-07T04:52:06.566Z,101004.75
2023-04-07T04:57:16.322Z,100922.22
2023-04-07T05:02:26.690Z,100995.75
2023-04-07T05:07:20.574Z,101056.88
2023-04-07T05:12:14.139Z,101022.72
2023-04-07T05:17:13.025Z,101038.28
2023-04-07T05:22:07.639Z,101080.88
2023-04-07T05:27:09.215Z,101055.34
2023-04-07T05:32:03.994Z,101064.16
2023-04-07T05:36:58.105Z,101030.22
2023-04-07T05:41:53.606Z,101090.75
2023-04-07T05:46:51.210Z,101012.81
2023-04-07T05:51:48.752Z,101054.72
2023-04-07T05:56:42.699Z,101069.03
2023-04-07T06:01:37.640Z,101058.63
2023-04-07T06:06:31.864Z,101007.41
2023-04-07T06:11:31.091Z,101074.03
2023-04-07T06:16:25.563Z,101014.28
2023-04-07T06:21:20.326Z,101120.34
2023-04-07T06:26:16.433Z,101085.03
2023-04-07T06:31:12.855Z,101052.00
2023-04-07T06:36:11.471Z,101095.34
2023-04-07T06:41:06.703Z,101127.88
2023-04-07T06:46:00.174Z,101143.63
2023-04-07T06:50:53.895Z,101136.16
2023-04-07T06:55:47.226Z,101145.06
2023-04-07T07:00:41.885Z,101034.88
2023-04-07T07:05:35.294Z,101087.63
2023-04-07T07:10:28.821Z,101156.03
2023-04-07T07:15:22.041Z,101077.69
2023-04-07T07:20:17.451Z,101151.38
2023-04-07T07:25:11.150Z,101115.88
2023-04-07T07:30:07.624Z,101152.25
2023-04-07T07:35:04.242Z,101182.03
2023-04-07T07:39:58.862Z,101154.47
2023-04-07T07:44:52.228Z,101177.88
2023-04-07T07:49:45.463Z,101137.22
2023-04-07T07:54:38.704Z,101150.41
2023-04-07T07:59:44.425Z,101163.47
2023-04-07T08:04:40.714Z,101162.78
2023-04-07T08:09:33.984Z,101156.34
2023-04-07T08:14:27.400Z,101176.75
2023-04-07T08:19:22.209Z,101188.44
2023-04-07T08:24:15.713Z,101186.28
2023-04-07T08:29:08.995Z,101167.28
2023-04-07T08:34:02.180Z,101200.56
2023-04-07T08:38:58.782Z,101167.22
2023-04-07T08:43:53.813Z,101160.56
2023-04-07T08:48:52.606Z,101145.72
2023-04-07T08:53:52.914Z,101151.56
2023-04-07T08:58:48.480Z,101183.34
2023-04-07T09:03:42.520Z,101182.53
2023-04-07T09:08:35.818Z,101172.81
2023-04-07T09:13:29.341Z,101152.56
2023-04-07T09:18:24.162Z,101174.53
2023-04-07T09:23:29.934Z,101179.22
2023-04-07T09:28:23.446Z,101198.09
2023-04-07T09:33:18.049Z,101153.41
2023-04-07T09:38:12.605Z,101208.34
2023-04-07T09:43:07.275Z,101175.59
2023-04-07T09:48:00.665Z,101192.09
2023-04-07T09:52:54.127Z,101212.31
2023-04-07T09:57:50.569Z,101167.06
2023-04-07T10:02:44.901Z,101207.84
2023-04-07T10:07:38.554Z,101182.00
2023-04-07T10:12:34.563Z,101210.78
2023-04-07T10:17:29.695Z,101177.84
2023-04-07T10:22:23.924Z,101150.06
2023-04-07T10:27:21.051Z,101210.78
2023-04-07T10:32:14.844Z,101213.22
2023-04-07T10:37:14.465Z,101212.28
2023-04-07T10:42:08.125Z,101206.50
2023-04-07T10:47:10.963Z,101222.47
2023-04-07T10:52:26.745Z,101220.72
2023-04-07T10:57:21.355Z,101169.84
2023-04-07T11:02:35.114Z,101223.31
2023-04-07T11:07:48.975Z,101180.22
2023-04-07T11:12:42.222Z,101191.88
2023-04-07T11:17:35.740Z,101219.22
2023-04-07T11:22:30.630Z,101210.56
2023-04-07T11:27:25.722Z,101198.09
2023-04-07T11:32:26.160Z,101198.09
2023-04-07T11:37:24.556Z,101199.72
2023-04-07T11:42:17.770Z,101192.16
2023-04-07T11:47:14.512Z,101207.97
2023-04-07T11:52:09.123Z,101149.63
2023-04-07T11:57:05.342Z,101178.66
2023-04-07T12:02:01.427Z,101204.22
2023-04-07T12:06:56.193Z,101181.41
2023-04-07T12:11:51.671Z,101207.38
2023-04-07T12:16:45.425Z,101200.31
2023-04-07T12:21:38.573Z,101208.06
2023-04-07T12:26:33.189Z,101191.97
2023-04-07T12:31:26.477Z,101217.13
2023-04-07T12:36:19.577Z,101221.22
2023-04-07T12:41:12.775Z,101220.59
2023-04-07T12:46:07.394Z,101137.22
2023-04-07T12:51:01.926Z,101208.22
2023-04-07T12:55:55.169Z,101236.31
2023-04-07T13:00:48.658Z,101191.16
2023-04-07T13:05:43.207Z,101240.59
2023-04-07T13:10:36.359Z,101249.31
2023-04-07T13:15:29.623Z,101251.16
2023-04-07T13:20:22.868Z,101207.41
2023-04-07T13:25:17.406Z,101252.72
2023-04-07T13:30:11.686Z,101152.59
2023-04-07T13:35:05.557Z,101263.47
2023-04-07T13:39:58.829Z,101268.16
2023-04-07T13:44:54.593Z,101236.63
2023-04-07T13:49:48.714Z,101158.59
2023-04-07T13:54:42.153Z,101254.56
2023-04-07T13:59:35.414Z,101291.59
2023-04-07T14:04:30.182Z,101278.16
2023-04-07T14:09:23.655Z,101285.56
2023-04-07T14:14:17.849Z,101308.63
2023-04-07T14:19:11.322Z,101309.13
2023-04-07T14:24:05.899Z,101313.03
2023-04-07T14:28:59.155Z,101327.78
2023-04-07T14:33:52.878Z,101332.06
2023-04-07T14:38:46.025Z,101301.63
2023-04-07T14:43:41.346Z,101304.06
2023-04-07T14:48:35.213Z,101299.53
2023-04-07T14:53:31.070Z,101301.72
2023-04-07T14:58:26.938Z,101358.09
2023-04-07T15:03:21.718Z,101343.31
2023-04-07T15:08:15.208Z,101357.06
2023-04-07T15:13:08.326Z,101374.97
2023-04-07T15:18:01.602Z,101381.09
2023-04-07T15:22:57.421Z,101301.19
2023-04-07T15:27:50.801Z,101286.00
2023-04-07T15:32:44.410Z,101299.34
2023-04-07T15:37:38.550Z,101339.78
2023-04-07T15:42:35.704Z,101386.16
2023-04-07T15:47:29.037Z,101276.69
2023-04-07T15:52:22.231Z,101370.50
2023-04-07T15:57:16.884Z,101340.59
2023-04-07T16:02:14.034Z,101325.94
2023-04-07T16:07:07.613Z,101401.22
2023-04-07T16:12:00.992Z,101396.56
2023-04-07T16:16:58.679Z,101395.41
2023-04-07T16:21:54.181Z,101381.53
2023-04-07T16:26:50.456Z,101431.69
2023-04-07T16:31:44.687Z,101443.84
2023-04-07T16:36:38.046Z,101430.00
2023-04-07T16:41:32.596Z,101412.81
2023-04-07T16:46:28.880Z,101355.28
2023-04-07T16:51:22.663Z,101439.75
2023-04-07T16:56:21.566Z,101378.66
2023-04-07T17:01:20.112Z,101368.16
2023-04-07T17:06:14.526Z,101405.53
2023-04-07T17:11:09.108Z,101436.19
2023-04-07T17:16:03.957Z,101454.31
2023-04-07T17:21:09.459Z,101434.63
2023-04-07T17:26:02.814Z,101378.84
2023-04-07T17:31:12.072Z,101508.66
2023-04-07T17:36:07.258Z,101515.91
2023-04-07T17:41:01.943Z,101524.72
2023-04-07T17:45:55.601Z,101442.59
2023-04-07T17:50:51.330Z,101322.28
2023-04-07T17:55:56.741Z,101514.38
2023-04-07T18:00:56.860Z,101430.50
2023-04-07T18:06:01.965Z,101552.19
2023-04-07T18:11:07.223Z,101535.47
2023-04-07T18:16:16.033Z,101443.00
2023-04-07T18:21:21.166Z,101365.00
2023-04-07T18:26:20.694Z,101516.09
2023-04-07T18:31:15.438Z,101518.81
2023-04-07T18:36:11.183Z,101485.97
2023-04-07T18:41:05.112Z,101369.78
2023-04-07T18:46:01.665Z,101592.31
2023-04-07T18:50:57.869Z,101601.09
2023-04-07T18:55:54.159Z,101517.94
2023-04-07T19:00:50.841Z,101617.69
2023-04-07T19:05:47.806Z,101417.91
2023-04-07T19:10:42.317Z,101613.38
2023-04-07T19:15:38.450Z,101611.69
2023-04-07T19:20:33.769Z,101615.22
2023-04-07T19:25:31.889Z,101471.09
2023-04-07T19:30:25.666Z,101567.34
2023-04-07T19:35:20.284Z,101605.47
2023-04-07T19:40:19.176Z,101503.50
2023-04-07T19:45:15.164Z,101567.50
2023-04-07T19:50:11.272Z,101588.84
2023-04-07T19:55:13.232Z,101551.41
2023-04-07T20:00:08.648Z,101574.22
2023-04-07T20:05:06.007Z,101621.84
2023-04-07T20:10:00.115Z,101616.72
2023-04-07T20:14:56.474Z,101527.38
2023-04-07T20:19:50.749Z,101538.47
2023-04-07T20:24:45.748Z,101397.97
2023-04-07T20:29:46.433Z,101509.31
2023-04-07T20:34:42.344Z,101569.19
2023-04-07T20:39:35.739Z,101423.56
2023-04-07T20:44:31.582Z,101612.50
2023-04-07T20:49:25.133Z,101615.09
2023-04-07T20:54:23.581Z,101400.22
2023-04-07T20:59:17.129Z,101535.84
2023-04-07T21:04:12.320Z,101360.81
2023-04-07T21:09:10.528Z,101538.44
2023-04-07T21:14:06.181Z,101616.34
2023-04-07T21:18:59.639Z,101483.31
2023-04-07T21:23:54.781Z,101514.47
2023-04-07T21:28:49.190Z,101587.16
2023-04-07T21:33:44.303Z,101598.06
2023-04-07T21:38:41.160Z,101550.91
2023-04-07T21:43:36.406Z,101627.75
2023-04-07T21:48:30.487Z,101523.25
2023-04-07T21:53:26.126Z,101500.47
2023-04-07T21:58:19.957Z,101547.56
2023-04-07T22:03:15.291Z,101531.53
2023-04-07T22:08:08.989Z,101623.59
2023-04-07T22:13:02.489Z,101624.66
2023-04-07T22:17:56.465Z,101558.88
2023-04-07T22:22:54.224Z,101542.75
2023-04-07T22:27:47.648Z,101585.81
2023-04-07T22:32:46.069Z,101498.19
2023-04-07T22:37:39.621Z,101591.81
2023-04-07T22:42:36.267Z,101521.78
2023-04-07T22:47:29.936Z,101595.91
2023-04-07T22:52:23.323Z,101508.97
2023-04-07T22:57:16.825Z,101600.09
2023-04-07T23:02:12.886Z,101564.69
2023-04-07T23:07:06.422Z,101630.16
2023-04-07T23:11:59.845Z,101636.97
2023-04-07T23:16:54.678Z,101637.88
2023-04-07T23:21:49.498Z,101595.72
2023-04-07T23:26:42.778Z,101585.53
2023-04-07T23:31:36.338Z,101601.59
2023-04-07T23:36:29.736Z,101622.50
2023-04-07T23:41:27.316Z,101631.72
2023-04-07T23:46:21.118Z,101630.91
2023-04-07T23:51:14.557Z,101525.19
2023-04-07T23:56:08.400Z,101559.03
